sensor_id;sensor_type;location;lat;lon;timestamp;pressure;altitude;pressure_sealevel;temperature;humidity
11987;BME280;6053;51.382;6.768;2022-07-23T00:00:35;101419.94;;;21.76;100.00
11987;BME280;6053;51.382;6.768;2022-07-23T00:03:05;101422.63;;;21.97;100.00
11987;BME280;6053;51.382;6.768;2022-07-23T00:05:34;101426.59;;;21.91;100.00
11987;BME280;6053;51.382;6.768;2022-07-23T00:08:05;101422.97;;;21.90;100.00
11987;BME280;6053;51.382;6.768;2022-07-23T00:10:41;101431.00;;;22.41;100.00
11987;BME280;6053;51.382;6.768;2022-07-23T00:13:10;101432.44;;;21.55;100.00
11987;BME280;6053;51.382;6.768;2022-07-23T00:15:38;101441.50;;;22.30;100.00
11987;BME280;6053;51.382;6.768;2022-07-23T00:18:07;101441.38;;;22.70;100.00
11987;BME280;6053;51.382;6.768;2022-07-23T00:20:35;101435.28;;;22.87;100.00
11987;BME280;6053;51.382;6.768;2022-07-23T00:23:04;101426.72;;;23.02;100.00
11987;BME280;6053;51.382;6.768;2022-07-23T00:25:32;101428.22;;;22.94;100.00
11987;BME280;6053;51.382;6.768;2022-07-23T00:28:02;101430.81;;;22.86;100.00
11987;BME280;6053;51.382;6.768;2022-07-23T00:30:32;101413.88;;;22.38;100.00
11987;BME280;6053;51.382;6.768;2022-07-23T00:33:04;101416.53;;;22.24;100.00
11987;BME280;6053;51.382;6.768;2022-07-23T00:35:36;101407.47;;;22.32;100.00
11987;BME280;6053;51.382;6.768;2022-07-23T00:38:05;101417.53;;;22.67;100.00
11987;BME280;6053;51.382;6.768;2022-07-23T00:40:33;101416.16;;;22.89;100.00
11987;BME280;6053;51.382;6.768;2022-07-23T00:43:03;101428.22;;;22.65;100.00
11987;BME280;6053;51.382;6.768;2022-07-23T00:45:32;101428.31;;;22.84;100.00
11987;BME280;6053;51.382;6.768;2022-07-23T00:48:01;101424.22;;;22.42;100.00
11987;BME280;6053;51.382;6.768;2022-07-23T00:50:29;101432.31;;;22.78;100.00
11987;BME280;6053;51.382;6.768;2022-07-23T00:52:58;101422.91;;;22.34;100.00
11987;BME280;6053;51.382;6.768;2022-07-23T00:55:27;101435.50;;;22.66;100.00
11987;BME280;6053;51.382;6.768;2022-07-23T00:57:55;101429.16;;;22.85;100.00
11987;BME280;6053;51.382;6.768;2022-07-23T01:00:25;101431.28;;;22.98;100.00
11987;BME280;6053;51.382;6.768;2022-07-23T01:02:54;101437.34;;;22.81;100.00
11987;BME280;6053;51.382;6.768;2022-07-23T01:05:22;101431.66;;;22.86;100.00
11987;BME280;6053;51.382;6.768;2022-07-23T01:07:52;101427.88;;;23.01;100.00
11987;BME280;6053;51.382;6.768;2022-07-23T01:10:23;101428.09;;;23.04;100.00
11987;BME280;6053;51.382;6.768;2022-07-23T01:13:04;101421.78;;;22.89;100.00
11987;BME280;6053;51.382;6.768;2022-07-23T01:15:35;101423.72;;;22.93;100.00
11987;BME280;6053;51.382;6.768;2022-07-23T01:18:06;101428.47;;;22.98;100.00
11987;BME280;6053;51.382;6.768;2022-07-23T01:20:35;101432.91;;;23.04;100.00
11987;BME280;6053;51.382;6.768;2022-07-23T01:23:05;101435.41;;;23.05;100.00
11987;BME280;6053;51.382;6.768;2022-07-23T01:25:34;101430.13;;;22.99;100.00
11987;BME280;6053;51.382;6.768;2022-07-23T01:28:03;101428.94;;;23.05;100.00
11987;BME280;6053;51.382;6.768;2022-07-23T01:30:32;101424.69;;;23.08;100.00
11987;BME280;6053;51.382;6.768;2022-07-23T01:33:00;101432.34;;;23.02;100.00
11987;BME280;6053;51.382;6.768;2022-07-23T01:35:28;101421.63;;;23.04;100.00
11987;BME280;6053;51.382;6.768;2022-07-23T01:37:57;101426.13;;;23.05;100.00
11987;BME280;6053;51.382;6.768;2022-07-23T01:40:27;101437.09;;;22.77;100.00
11987;BME280;6053;51.382;6.768;2022-07-23T01:42:55;101427.09;;;22.90;100.00
11987;BME280;6053;51.382;6.768;2022-07-23T01:45:23;101425.13;;;22.91;100.00
11987;BME280;6053;51.382;6.768;2022-07-23T01:47:52;101421.47;;;22.90;100.00
11987;BME280;6053;51.382;6.768;2022-07-23T01:50:20;101419.88;;;22.84;100.00
11987;BME280;6053;51.382;6.768;2022-07-23T01:52:49;101423.06;;;22.72;100.00
11987;BME280;6053;51.382;6.768;2022-07-23T01:55:17;101419.06;;;22.78;100.00
11987;BME280;6053;51.382;6.768;2022-07-23T01:57:47;101411.81;;;22.72;100.00
11987;BME280;6053;51.382;6.768;2022-07-23T02:00:16;101417.16;;;22.74;100.00
11987;BME280;6053;51.382;6.768;2022-07-23T02:02:44;101418.59;;;22.71;100.00
11987;BME280;6053;51.382;6.768;2022-07-23T02:05:12;101423.63;;;22.74;100.00
11987;BME280;6053;51.382;6.768;2022-07-23T02:07:41;101421.56;;;22.80;100.00
11987;BME280;6053;51.382;6.768;2022-07-23T02:10:09;101422.44;;;22.80;100.00
11987;BME280;6053;51.382;6.768;2022-07-23T02:12:38;101419.06;;;22.78;100.00
11987;BME280;6053;51.382;6.768;2022-07-23T02:15:08;101415.19;;;22.74;100.00
11987;BME280;6053;51.382;6.768;2022-07-23T02:17:38;101416.84;;;22.75;100.00
11987;BME280;6053;51.382;6.768;2022-07-23T02:20:10;101411.00;;;22.72;100.00
11987;BME280;6053;51.382;6.768;2022-07-23T02:22:39;101412.41;;;22.69;100.00
11987;BME280;6053;51.382;6.768;2022-07-23T02:25:08;101411.94;;;22.62;100.00
11987;BME280;6053;51.382;6.768;2022-07-23T02:27:37;101415.91;;;22.61;100.00
11987;BME280;6053;51.382;6.768;2022-07-23T02:30:08;101409.56;;;22.74;100.00
11987;BME280;6053;51.382;6.768;2022-07-23T02:32:37;101421.66;;;22.75;100.00
11987;BME280;6053;51.382;6.768;2022-07-23T02:35:07;101420.34;;;22.67;100.00
11987;BME280;6053;51.382;6.768;2022-07-23T02:37:35;101406.13;;;22.53;100.00
11987;BME280;6053;51.382;6.768;2022-07-23T02:40:05;101407.59;;;22.46;100.00
11987;BME280;6053;51.382;6.768;2022-07-23T02:42:34;101403.06;;;22.50;100.00
11987;BME280;6053;51.382;6.768;2022-07-23T02:45:03;101413.13;;;22.56;100.00
11987;BME280;6053;51.382;6.768;2022-07-23T02:47:32;101407.22;;;22.57;100.00
11987;BME280;6053;51.382;6.768;2022-07-23T02:50:01;101410.31;;;22.56;100.00
11987;BME280;6053;51.382;6.768;2022-07-23T02:52:30;101410.03;;;22.57;100.00
11987;BME280;6053;51.382;6.768;2022-07-23T02:54:59;101407.06;;;22.09;100.00
11987;BME280;6053;51.382;6.768;2022-07-23T02:57:27;101418.44;;;22.33;100.00
11987;BME280;6053;51.382;6.768;2022-07-23T02:59:56;101406.63;;;22.31;100.00
11987;BME280;6053;51.382;6.768;2022-07-23T03:02:24;101409.81;;;22.49;100.00
11987;BME280;6053;51.382;6.768;2022-07-23T03:04:54;101405.00;;;22.54;100.00
11987;BME280;6053;51.382;6.768;2022-07-23T03:07:22;101414.31;;;22.50;100.00
11987;BME280;6053;51.382;6.768;2022-07-23T03:09:51;101412.34;;;22.21;100.00
11987;BME280;6053;51.382;6.768;2022-07-23T03:12:19;101406.63;;;22.31;100.00
11987;BME280;6053;51.382;6.768;2022-07-23T03:14:48;101406.63;;;22.31;100.00
11987;BME280;6053;51.382;6.768;2022-07-23T03:17:17;101412.28;;;22.26;100.00
11987;BME280;6053;51.382;6.768;2022-07-23T03:19:45;101409.22;;;22.23;100.00
11987;BME280;6053;51.382;6.768;2022-07-23T03:22:15;101412.41;;;22.11;100.00
11987;BME280;6053;51.382;6.768;2022-07-23T03:24:43;101411.50;;;22.21;100.00
11987;BME280;6053;51.382;6.768;2022-07-23T03:27:25;101415.16;;;22.21;100.00
11987;BME280;6053;51.382;6.768;2022-07-23T03:29:56;101412.34;;;22.21;100.00
11987;BME280;6053;51.382;6.768;2022-07-23T03:32:25;101419.63;;;22.22;100.00
11987;BME280;6053;51.382;6.768;2022-07-23T03:34:54;101412.94;;;22.18;100.00
11987;BME280;6053;51.382;6.768;2022-07-23T03:37:25;101410.38;;;22.22;100.00
11987;BME280;6053;51.382;6.768;2022-07-23T03:39:54;101406.75;;;22.16;100.00
11987;BME280;6053;51.382;6.768;2022-07-23T03:42:23;101412.63;;;22.20;100.00
11987;BME280;6053;51.382;6.768;2022-07-23T03:44:51;101414.91;;;22.18;100.00
11987;BME280;6053;51.382;6.768;2022-07-23T03:47:19;101422.22;;;22.13;100.00
11987;BME280;6053;51.382;6.768;2022-07-23T03:49:49;101418.28;;;22.09;100.00
11987;BME280;6053;51.382;6.768;2022-07-23T03:52:17;101418.03;;;22.11;100.00
11987;BME280;6053;51.382;6.768;2022-07-23T03:54:47;101417.13;;;22.21;100.00
11987;BME280;6053;51.382;6.768;2022-07-23T03:57:16;101410.97;;;22.13;100.00
11987;BME280;6053;51.382;6.768;2022-07-23T03:59:44;101416.31;;;22.15;100.00
11987;BME280;6053;51.382;6.768;2022-07-23T04:02:12;101413.22;;;22.11;100.00
11987;BME280;6053;51.382;6.768;2022-07-23T04:04:41;101414.91;;;22.12;100.00
11987;BME280;6053;51.382;6.768;2022-07-23T04:07:09;101412.44;;;22.06;100.00
11987;BME280;6053;51.382;6.768;2022-07-23T04:09:38;101414.97;;;22.02;100.00
11987;BME280;6053;51.382;6.768;2022-07-23T04:12:13;101424.22;;;22.08;100.00
11987;BME280;6053;51.382;6.768;2022-07-23T04:14:42;101429.25;;;22.11;100.00
11987;BME280;6053;51.382;6.768;2022-07-23T04:17:11;101422.50;;;22.17;100.00
11987;BME280;6053;51.382;6.768;2022-07-23T04:19:39;101423.34;;;22.18;100.00
11987;BME280;6053;51.382;6.768;2022-07-23T04:22:11;101437.66;;;22.16;100.00
11987;BME280;6053;51.382;6.768;2022-07-23T04:24:39;101437.91;;;22.20;100.00
11987;BME280;6053;51.382;6.768;2022-07-23T04:27:08;101439.63;;;22.16;100.00
11987;BME280;6053;51.382;6.768;2022-07-23T04:29:37;101445.44;;;21.90;100.00
11987;BME280;6053;51.382;6.768;2022-07-23T04:32:06;101443.91;;;22.03;100.00
11987;BME280;6053;51.382;6.768;2022-07-23T04:34:34;101440.47;;;22.16;100.00
11987;BME280;6053;51.382;6.768;2022-07-23T04:37:03;101430.63;;;22.19;100.00
11987;BME280;6053;51.382;6.768;2022-07-23T04:39:31;101432.28;;;22.20;100.00
11987;BME280;6053;51.382;6.768;2022-07-23T04:42:00;101441.03;;;22.13;100.00
11987;BME280;6053;51.382;6.768;2022-07-23T04:44:28;101448.56;;;22.23;100.00
11987;BME280;6053;51.382;6.768;2022-07-23T04:46:58;101448.22;;;22.29;100.00
11987;BME280;6053;51.382;6.768;2022-07-23T04:49:26;101447.91;;;22.65;100.00
11987;BME280;6053;51.382;6.768;2022-07-23T04:51:55;101454.75;;;23.12;100.00
11987;BME280;6053;51.382;6.768;2022-07-23T04:54:23;101458.94;;;23.58;100.00
11987;BME280;6053;51.382;6.768;2022-07-23T04:56:51;101456.16;;;23.95;100.00
11987;BME280;6053;51.382;6.768;2022-07-23T04:59:20;101470.50;;;23.56;100.00
11987;BME280;6053;51.382;6.768;2022-07-23T05:01:49;101456.69;;;23.79;100.00
11987;BME280;6053;51.382;6.768;2022-07-23T05:04:19;101459.59;;;24.11;100.00
11987;BME280;6053;51.382;6.768;2022-07-23T05:06:47;101471.44;;;24.46;100.00
11987;BME280;6053;51.382;6.768;2022-07-23T05:09:16;101467.53;;;24.75;99.02
11987;BME280;6053;51.382;6.768;2022-07-23T05:11:44;101467.66;;;24.97;97.50
11987;BME280;6053;51.382;6.768;2022-07-23T05:14:12;101471.28;;;24.70;98.81
11987;BME280;6053;51.382;6.768;2022-07-23T05:16:41;101470.81;;;24.49;98.55
11987;BME280;6053;51.382;6.768;2022-07-23T05:19:09;101468.09;;;24.58;99.36
11987;BME280;6053;51.382;6.768;2022-07-23T05:21:39;101471.81;;;24.72;98.17
11987;BME280;6053;51.382;6.768;2022-07-23T05:24:08;101470.84;;;25.37;95.26
11987;BME280;6053;51.382;6.768;2022-07-23T05:26:36;101479.59;;;24.29;100.00
11987;BME280;6053;51.382;6.768;2022-07-23T05:29:05;101482.94;;;24.50;99.80
11987;BME280;6053;51.382;6.768;2022-07-23T05:31:34;101487.22;;;24.28;99.28
11987;BME280;6053;51.382;6.768;2022-07-23T05:34:02;101488.59;;;24.12;100.00
11987;BME280;6053;51.382;6.768;2022-07-23T05:36:32;101482.81;;;25.01;97.41
11987;BME280;6053;51.382;6.768;2022-07-23T05:39:03;101487.56;;;25.06;96.78
11987;BME280;6053;51.382;6.768;2022-07-23T05:41:32;101480.84;;;25.71;93.83
11987;BME280;6053;51.382;6.768;2022-07-23T05:44:01;101487.38;;;25.16;95.94
11987;BME280;6053;51.382;6.768;2022-07-23T05:46:29;101481.88;;;24.45;99.15
11987;BME280;6053;51.382;6.768;2022-07-23T05:48:58;101489.16;;;24.65;96.63
11987;BME280;6053;51.382;6.768;2022-07-23T05:51:27;101490.78;;;24.34;100.00
11987;BME280;6053;51.382;6.768;2022-07-23T05:53:55;101486.94;;;25.50;94.93
11987;BME280;6053;51.382;6.768;2022-07-23T05:56:26;101498.28;;;26.00;92.29
11987;BME280;6053;51.382;6.768;2022-07-23T05:58:55;101503.53;;;26.29;91.00
11987;BME280;6053;51.382;6.768;2022-07-23T06:01:23;101500.91;;;26.33;90.83
11987;BME280;6053;51.382;6.768;2022-07-23T06:03:52;101495.97;;;26.61;89.37
11987;BME280;6053;51.382;6.768;2022-07-23T06:06:20;101505.72;;;26.77;88.46
11987;BME280;6053;51.382;6.768;2022-07-23T06:08:49;101507.81;;;26.94;87.64
11987;BME280;6053;51.382;6.768;2022-07-23T06:11:17;101508.16;;;27.24;86.05
11987;BME280;6053;51.382;6.768;2022-07-23T06:13:47;101511.31;;;27.22;85.61
11987;BME280;6053;51.382;6.768;2022-07-23T06:16:15;101510.56;;;26.77;87.33
11987;BME280;6053;51.382;6.768;2022-07-23T06:18:43;101512.19;;;27.32;85.31
11987;BME280;6053;51.382;6.768;2022-07-23T06:21:14;101517.13;;;27.17;85.66
11987;BME280;6053;51.382;6.768;2022-07-23T06:24:02;101508.22;;;25.98;90.91
11987;BME280;6053;51.382;6.768;2022-07-23T06:26:31;101514.78;;;26.66;88.19
11987;BME280;6053;51.382;6.768;2022-07-23T06:29:01;101511.91;;;26.57;86.18
11987;BME280;6053;51.382;6.768;2022-07-23T06:31:30;101512.03;;;25.24;91.35
11987;BME280;6053;51.382;6.768;2022-07-23T06:33:58;101512.81;;;26.07;88.49
11987;BME280;6053;51.382;6.768;2022-07-23T06:36:27;101512.84;;;26.30;87.71
11987;BME280;6053;51.382;6.768;2022-07-23T06:38:56;101518.81;;;24.63;95.60
11987;BME280;6053;51.382;6.768;2022-07-23T06:41:24;101515.50;;;24.75;93.08
11987;BME280;6053;51.382;6.768;2022-07-23T06:43:52;101513.19;;;25.51;87.60
11987;BME280;6053;51.382;6.768;2022-07-23T06:46:22;101523.13;;;23.37;100.00
11987;BME280;6053;51.382;6.768;2022-07-23T06:48:52;101524.41;;;24.82;93.53
11987;BME280;6053;51.382;6.768;2022-07-23T06:51:20;101523.03;;;25.53;91.49
11987;BME280;6053;51.382;6.768;2022-07-23T06:53:49;101521.84;;;23.00;100.00
11987;BME280;6053;51.382;6.768;2022-07-23T06:56:17;101524.13;;;25.11;94.18
11987;BME280;6053;51.382;6.768;2022-07-23T06:58:45;101528.84;;;25.98;88.50
11987;BME280;6053;51.382;6.768;2022-07-23T07:01:14;101530.78;;;25.89;89.74
11987;BME280;6053;51.382;6.768;2022-07-23T07:03:44;101532.22;;;26.00;87.62
11987;BME280;6053;51.382;6.768;2022-07-23T07:06:13;101528.81;;;26.26;85.72
11987;BME280;6053;51.382;6.768;2022-07-23T07:08:41;101526.66;;;25.95;88.93
11987;BME280;6053;51.382;6.768;2022-07-23T07:11:11;101520.84;;;25.50;88.52
11987;BME280;6053;51.382;6.768;2022-07-23T07:13:39;101532.00;;;26.33;87.13
11987;BME280;6053;51.382;6.768;2022-07-23T07:16:07;101524.69;;;25.96;88.62
11987;BME280;6053;51.382;6.768;2022-07-23T07:18:36;101530.25;;;26.23;87.61
11987;BME280;6053;51.382;6.768;2022-07-23T07:21:06;101527.66;;;24.56;91.26
11987;BME280;6053;51.382;6.768;2022-07-23T07:23:34;101531.69;;;22.68;100.00
11987;BME280;6053;51.382;6.768;2022-07-23T07:26:03;101532.84;;;24.30;95.32
11987;BME280;6053;51.382;6.768;2022-07-23T07:28:31;101534.75;;;25.47;88.99
11987;BME280;6053;51.382;6.768;2022-07-23T07:30:59;101536.75;;;25.19;93.46
11987;BME280;6053;51.382;6.768;2022-07-23T07:33:29;101542.09;;;24.55;94.63
11987;BME280;6053;51.382;6.768;2022-07-23T07:35:58;101542.19;;;23.69;98.00
11987;BME280;6053;51.382;6.768;2022-07-23T07:38:29;101542.00;;;24.92;93.76
11987;BME280;6053;51.382;6.768;2022-07-23T07:40:57;101537.97;;;24.28;93.32
11987;BME280;6053;51.382;6.768;2022-07-23T07:43:25;101541.38;;;23.63;97.45
11987;BME280;6053;51.382;6.768;2022-07-23T07:45:54;101548.50;;;24.22;93.09
11987;BME280;6053;51.382;6.768;2022-07-23T07:48:22;101548.41;;;24.28;96.44
11987;BME280;6053;51.382;6.768;2022-07-23T07:50:51;101547.44;;;24.89;93.46
11987;BME280;6053;51.382;6.768;2022-07-23T07:53:20;101556.09;;;25.25;89.03
11987;BME280;6053;51.382;6.768;2022-07-23T07:55:49;101558.06;;;24.78;87.48
11987;BME280;6053;51.382;6.768;2022-07-23T07:58:18;101557.53;;;25.78;89.16
11987;BME280;6053;51.382;6.768;2022-07-23T08:00:46;101563.53;;;25.62;83.41
11987;BME280;6053;51.382;6.768;2022-07-23T08:03:16;101563.38;;;26.23;82.75
11987;BME280;6053;51.382;6.768;2022-07-23T08:05:45;101563.63;;;25.57;82.41
11987;BME280;6053;51.382;6.768;2022-07-23T08:08:14;101568.06;;;26.86;80.96
11987;BME280;6053;51.382;6.768;2022-07-23T08:10:43;101568.00;;;26.41;76.61
11987;BME280;6053;51.382;6.768;2022-07-23T08:13:15;101569.53;;;27.37;76.39
11987;BME280;6053;51.382;6.768;2022-07-23T08:15:44;101565.84;;;25.88;79.48
11987;BME280;6053;51.382;6.768;2022-07-23T08:18:13;101566.88;;;25.64;79.95
11987;BME280;6053;51.382;6.768;2022-07-23T08:20:41;101572.22;;;27.11;76.57
11987;BME280;6053;51.382;6.768;2022-07-23T08:23:10;101569.63;;;26.33;71.76
11987;BME280;6053;51.382;6.768;2022-07-23T08:25:41;101572.03;;;24.13;78.40
11987;BME280;6053;51.382;6.768;2022-07-23T08:28:13;101576.09;;;25.29;80.32
11987;BME280;6053;51.382;6.768;2022-07-23T08:30:44;101573.28;;;25.56;77.33
11987;BME280;6053;51.382;6.768;2022-07-23T08:33:15;101578.41;;;25.96;76.64
11987;BME280;6053;51.382;6.768;2022-07-23T08:36:01;101576.22;;;26.65;73.40
11987;BME280;6053;51.382;6.768;2022-07-23T08:38:31;101576.78;;;26.17;72.20
11987;BME280;6053;51.382;6.768;2022-07-23T08:41:00;101586.44;;;26.52;69.19
11987;BME280;6053;51.382;6.768;2022-07-23T08:43:31;101585.09;;;26.95;72.58
11987;BME280;6053;51.382;6.768;2022-07-23T08:46:02;101586.97;;;27.62;66.00
11987;BME280;6053;51.382;6.768;2022-07-23T08:48:33;101590.31;;;26.56;71.37
11987;BME280;6053;51.382;6.768;2022-07-23T08:51:06;101586.66;;;26.42;65.41
11987;BME280;6053;51.382;6.768;2022-07-23T08:53:37;101582.28;;;26.00;62.44
11987;BME280;6053;51.382;6.768;2022-07-23T08:56:08;101586.25;;;25.57;60.08
11987;BME280;6053;51.382;6.768;2022-07-23T08:58:38;101584.31;;;27.65;56.21
11987;BME280;6053;51.382;6.768;2022-07-23T09:01:06;101579.00;;;27.72;57.30
11987;BME280;6053;51.382;6.768;2022-07-23T09:03:37;101584.06;;;26.32;55.86
11987;BME280;6053;51.382;6.768;2022-07-23T09:06:07;101585.34;;;26.62;61.71
11987;BME280;6053;51.382;6.768;2022-07-23T09:08:37;101585.75;;;27.85;58.10
11987;BME280;6053;51.382;6.768;2022-07-23T09:11:08;101588.19;;;26.85;55.37
11987;BME280;6053;51.382;6.768;2022-07-23T09:13:40;101595.94;;;27.95;57.39
11987;BME280;6053;51.382;6.768;2022-07-23T09:16:13;101594.00;;;28.30;53.30
11987;BME280;6053;51.382;6.768;2022-07-23T09:18:45;101593.38;;;27.76;57.10
11987;BME280;6053;51.382;6.768;2022-07-23T09:21:20;101580.91;;;26.92;55.40
11987;BME280;6053;51.382;6.768;2022-07-23T09:23:54;101585.50;;;27.73;53.84
11987;BME280;6053;51.382;6.768;2022-07-23T09:26:32;101590.44;;;26.38;55.17
11987;BME280;6053;51.382;6.768;2022-07-23T09:29:09;101588.38;;;27.11;51.62
11987;BME280;6053;51.382;6.768;2022-07-23T09:31:50;101588.03;;;27.74;52.42
11987;BME280;6053;51.382;6.768;2022-07-23T09:34:21;101577.88;;;26.89;50.69
11987;BME280;6053;51.382;6.768;2022-07-23T09:36:52;101596.25;;;27.85;56.22
11987;BME280;6053;51.382;6.768;2022-07-23T09:39:27;101588.56;;;27.45;52.41
11987;BME280;6053;51.382;6.768;2022-07-23T09:41:58;101586.09;;;27.84;51.97
11987;BME280;6053;51.382;6.768;2022-07-23T09:44:43;101585.09;;;26.50;52.13
11987;BME280;6053;51.382;6.768;2022-07-23T09:47:12;101587.25;;;26.67;53.64
11987;BME280;6053;51.382;6.768;2022-07-23T09:49:42;101596.53;;;27.12;52.67
11987;BME280;6053;51.382;6.768;2022-07-23T09:52:27;101602.13;;;27.57;53.79
11987;BME280;6053;51.382;6.768;2022-07-23T09:55:04;101599.75;;;26.52;50.63
11987;BME280;6053;51.382;6.768;2022-07-23T09:57:33;101586.06;;;26.90;52.51
11987;BME280;6053;51.382;6.768;2022-07-23T10:00:05;101591.75;;;26.90;54.78
11987;BME280;6053;51.382;6.768;2022-07-23T10:02:36;101603.44;;;27.51;48.86
11987;BME280;6053;51.382;6.768;2022-07-23T10:05:06;101593.91;;;27.78;48.25
11987;BME280;6053;51.382;6.768;2022-07-23T10:07:39;101602.13;;;27.57;49.07
11987;BME280;6053;51.382;6.768;2022-07-23T10:10:10;101598.09;;;27.18;49.95
11987;BME280;6053;51.382;6.768;2022-07-23T10:12:39;101598.75;;;27.78;48.62
11987;BME280;6053;51.382;6.768;2022-07-23T10:15:27;101598.66;;;27.69;47.20
11987;BME280;6053;51.382;6.768;2022-07-23T10:17:56;101600.97;;;27.98;51.16
11987;BME280;6053;51.382;6.768;2022-07-23T10:20:24;101598.31;;;28.02;48.96
11987;BME280;6053;51.382;6.768;2022-07-23T10:23:00;101595.78;;;27.91;51.54
11987;BME280;6053;51.382;6.768;2022-07-23T10:25:35;101588.13;;;27.21;45.22
11987;BME280;6053;51.382;6.768;2022-07-23T10:28:32;101583.97;;;26.37;48.15
11987;BME280;6053;51.382;6.768;2022-07-23T10:31:08;101580.72;;;27.11;48.42
11987;BME280;6053;51.382;6.768;2022-07-23T10:34:10;101581.81;;;27.24;48.17
11987;BME280;6053;51.382;6.768;2022-07-23T10:36:47;101585.19;;;27.35;47.98
11987;BME280;6053;51.382;6.768;2022-07-23T10:39:20;101584.47;;;27.60;49.09
11987;BME280;6053;51.382;6.768;2022-07-23T10:41:51;101580.50;;;27.30;50.04
11987;BME280;6053;51.382;6.768;2022-07-23T10:44:21;101586.06;;;27.44;48.43
11987;BME280;6053;51.382;6.768;2022-07-23T10:47:01;101582.66;;;28.22;51.13
11987;BME280;6053;51.382;6.768;2022-07-23T10:49:49;101581.75;;;27.46;46.76
11987;BME280;6053;51.382;6.768;2022-07-23T10:52:24;101579.25;;;27.45;45.96
11987;BME280;6053;51.382;6.768;2022-07-23T10:54:55;101575.78;;;26.72;53.14
11987;BME280;6053;51.382;6.768;2022-07-23T10:57:25;101572.28;;;26.97;44.87
11987;BME280;6053;51.382;6.768;2022-07-23T11:00:20;101576.78;;;28.09;50.67
11987;BME280;6053;51.382;6.768;2022-07-23T11:02:53;101581.81;;;28.04;49.00
11987;BME280;6053;51.382;6.768;2022-07-23T11:05:25;101570.69;;;27.76;43.36
11987;BME280;6053;51.382;6.768;2022-07-23T11:08:20;101579.59;;;27.43;48.31
11987;BME280;6053;51.382;6.768;2022-07-23T11:10:53;101567.47;;;27.60;45.41
11987;BME280;6053;51.382;6.768;2022-07-23T11:13:37;101569.63;;;28.12;46.47
11987;BME280;6053;51.382;6.768;2022-07-23T11:16:13;101567.31;;;27.57;45.31
11987;BME280;6053;51.382;6.768;2022-07-23T11:19:10;101562.81;;;27.02;45.75
11987;BME280;6053;51.382;6.768;2022-07-23T11:21:56;101571.44;;;27.59;49.01
11987;BME280;6053;51.382;6.768;2022-07-23T11:24:25;101569.59;;;27.15;47.86
11987;BME280;6053;51.382;6.768;2022-07-23T11:27:00;101567.50;;;25.75;54.07
11987;BME280;6053;51.382;6.768;2022-07-23T11:29:48;101575.81;;;27.57;47.14
11987;BME280;6053;51.382;6.768;2022-07-23T11:32:36;101573.06;;;26.89;46.79
11987;BME280;6053;51.382;6.768;2022-07-23T11:35:25;101573.81;;;26.36;48.27
11987;BME280;6053;51.382;6.768;2022-07-23T11:38:04;101572.06;;;26.63;52.86
11987;BME280;6053;51.382;6.768;2022-07-23T11:40:34;101576.19;;;26.56;51.23
11987;BME280;6053;51.382;6.768;2022-07-23T11:43:06;101562.31;;;27.00;51.75
11987;BME280;6053;51.382;6.768;2022-07-23T11:45:37;101575.59;;;27.13;50.02
11987;BME280;6053;51.382;6.768;2022-07-23T11:48:08;101572.63;;;26.73;47.70
11987;BME280;6053;51.382;6.768;2022-07-23T11:50:38;101570.44;;;26.48;49.12
11987;BME280;6053;51.382;6.768;2022-07-23T11:53:07;101572.09;;;25.99;45.80
11987;BME280;6053;51.382;6.768;2022-07-23T11:55:35;101567.72;;;26.29;49.12
11987;BME280;6053;51.382;6.768;2022-07-23T11:58:04;101571.34;;;26.57;45.49
11987;BME280;6053;51.382;6.768;2022-07-23T12:00:32;101569.28;;;25.99;49.64
11987;BME280;6053;51.382;6.768;2022-07-23T12:03:07;101570.41;;;26.12;47.69
11987;BME280;6053;51.382;6.768;2022-07-23T12:05:38;101567.31;;;26.49;48.40
11987;BME280;6053;51.382;6.768;2022-07-23T12:08:09;101563.56;;;26.63;47.94
11987;BME280;6053;51.382;6.768;2022-07-23T12:10:40;101570.91;;;26.86;50.12
11987;BME280;6053;51.382;6.768;2022-07-23T12:13:12;101562.78;;;26.93;50.06
11987;BME280;6053;51.382;6.768;2022-07-23T12:15:44;101564.44;;;26.94;48.42
11987;BME280;6053;51.382;6.768;2022-07-23T12:18:16;101561.38;;;26.60;49.00
11987;BME280;6053;51.382;6.768;2022-07-23T12:20:48;101561.06;;;26.61;49.18
11987;BME280;6053;51.382;6.768;2022-07-23T12:23:19;101559.25;;;26.88;50.86
11987;BME280;6053;51.382;6.768;2022-07-23T12:25:50;101552.53;;;25.89;48.45
11987;BME280;6053;51.382;6.768;2022-07-23T12:28:21;101560.78;;;26.94;47.87
11987;BME280;6053;51.382;6.768;2022-07-23T12:30:51;101559.22;;;27.10;49.36
11987;BME280;6053;51.382;6.768;2022-07-23T12:33:24;101557.75;;;26.90;51.76
11987;BME280;6053;51.382;6.768;2022-07-23T12:35:56;101566.84;;;26.78;46.44
11987;BME280;6053;51.382;6.768;2022-07-23T12:38:36;101559.09;;;27.15;46.63
11987;BME280;6053;51.382;6.768;2022-07-23T12:41:05;101561.66;;;27.25;49.51
11987;BME280;6053;51.382;6.768;2022-07-23T12:43:36;101563.81;;;26.75;46.23
11987;BME280;6053;51.382;6.768;2022-07-23T12:46:06;101559.81;;;26.98;48.18
11987;BME280;6053;51.382;6.768;2022-07-23T12:48:38;101561.28;;;26.96;48.34
11987;BME280;6053;51.382;6.768;2022-07-23T12:51:14;101557.84;;;27.30;47.27
11987;BME280;6053;51.382;6.768;2022-07-23T12:54:07;101559.22;;;27.41;49.11
11987;BME280;6053;51.382;6.768;2022-07-23T12:56:38;101570.59;;;27.19;49.18
11987;BME280;6053;51.382;6.768;2022-07-23T12:59:10;101575.84;;;26.80;49.78
11987;BME280;6053;51.382;6.768;2022-07-23T13:01:40;101574.69;;;27.35;51.27
11987;BME280;6053;51.382;6.768;2022-07-23T13:04:15;101572.97;;;27.25;46.29
11987;BME280;6053;51.382;6.768;2022-07-23T13:06:48;101571.13;;;26.76;43.51
11987;BME280;6053;51.382;6.768;2022-07-23T13:09:19;101562.16;;;26.01;54.18
11987;BME280;6053;51.382;6.768;2022-07-23T13:11:49;101565.50;;;26.03;52.04
11987;BME280;6053;51.382;6.768;2022-07-23T13:14:19;101569.91;;;26.09;49.53